createdAt,value
2024-03-16T07:30:46.468Z,81.97
2024-03-16T07:33:15.045Z,81.17
2024-03-16T07:35:42.473Z,79.12
2024-03-16T07:38:09.596Z,79.17
2024-03-16T07:40:36.221Z,77.06
2024-03-16T07:43:03.192Z,78.12
2024-03-16T07:45:30.032Z,77.84
2024-03-16T07:47:56.999Z,81.09
2024-03-16T07:50:23.772Z,76.97
2024-03-16T07:52:50.430Z,75.28
2024-03-16T07:55:17.923Z,76.06
2024-03-16T07:57:44.637Z,73.44
2024-03-16T08:00:12.582Z,72.80
2024-03-16T08:02:39.549Z,69.78
2024-03-16T08:05:06.601Z,71.72
2024-03-16T08:07:33.195Z,67.87
2024-03-16T08:09:59.993Z,65.63
2024-03-16T08:12:28.353Z,65.67
2024-03-16T08:14:56.372Z,64.73
2024-03-16T08:17:23.694Z,62.35
2024-03-16T08:19:50.142Z,62.39
2024-03-16T08:22:16.906Z,61.19
2024-03-16T08:24:43.619Z,58.85
2024-03-16T08:27:10.339Z,59.04
2024-03-16T08:29:36.882Z,57.16
2024-03-16T08:32:03.669Z,57.37
2024-03-16T08:34:30.454Z,56.97
2024-03-16T08:36:57.363Z,56.40
2024-03-16T08:39:28.349Z,56.00
2024-03-16T08:41:55.041Z,56.27
2024-03-16T08:44:21.662Z,55.69
2024-03-16T08:46:48.591Z,55.47
2024-03-16T08:49:15.328Z,54.58
2024-03-16T08:51:42.172Z,55.35
2024-03-16T08:54:08.839Z,56.36
2024-03-16T08:56:35.779Z,55.15
2024-03-16T08:59:04.620Z,53.93
2024-03-16T09:01:31.385Z,54.12
2024-03-16T09:03:58.026Z,52.66
2024-03-16T09:06:24.688Z,53.72
2024-03-16T09:08:51.960Z,52.80
2024-03-16T09:11:18.466Z,51.96
2024-03-16T09:13:45.053Z,50.93
2024-03-16T09:16:11.663Z,50.70
2024-03-16T09:18:39.892Z,50.21
2024-03-16T09:21:06.855Z,48.88
2024-03-16T09:23:33.651Z,48.99
2024-03-16T09:26:02.262Z,48.32
2024-03-16T09:28:28.927Z,47.74
2024-03-16T09:30:57.062Z,48.60
2024-03-16T09:33:24.306Z,49.71
2024-03-16T09:35:53.869Z,51.67
2024-03-16T09:38:20.957Z,51.85
2024-03-16T09:40:58.701Z,54.48
